sensor_id;sensor_type;location;lat;lon;timestamp;temperature;humidity
22540;DHT22;11436;50.860;4.334;2022-07-29T00:01:50;20.10;99.90
22540;DHT22;11436;50.860;4.334;2022-07-29T00:04:18;20.00;99.90
22540;DHT22;11436;50.860;4.334;2022-07-29T00:06:44;20.00;99.90
22540;DHT22;11436;50.860;4.334;2022-07-29T00:09:10;20.00;99.90
22540;DHT22;11436;50.860;4.334;2022-07-29T00:11:36;20.00;99.90
22540;DHT22;11436;50.860;4.334;2022-07-29T00:14:01;20.00;99.90
22540;DHT22;11436;50.860;4.334;2022-07-29T00:16:27;20.00;99.90
22540;DHT22;11436;50.860;4.334;2022-07-29T00:18:53;19.90;99.90
22540;DHT22;11436;50.860;4.334;2022-07-29T00:21:19;19.90;99.90
22540;DHT22;11436;50.860;4.334;2022-07-29T00:23:44;19.90;99.90
22540;DHT22;11436;50.860;4.334;2022-07-29T00:26:10;19.90;99.90
22540;DHT22;11436;50.860;4.334;2022-07-29T00:28:36;19.90;99.90
22540;DHT22;11436;50.860;4.334;2022-07-29T00:31:02;19.90;99.90
22540;DHT22;11436;50.860;4.334;2022-07-29T00:33:28;19.80;99.90
22540;DHT22;11436;50.860;4.334;2022-07-29T00:35:54;19.80;99.90
22540;DHT22;11436;50.860;4.334;2022-07-29T00:38:20;19.70;99.90
22540;DHT22;11436;50.860;4.334;2022-07-29T00:40:46;19.70;99.90
22540;DHT22;11436;50.860;4.334;2022-07-29T00:43:13;19.70;99.90
22540;DHT22;11436;50.860;4.334;2022-07-29T00:45:40;19.60;99.90
22540;DHT22;11436;50.860;4.334;2022-07-29T00:48:06;19.60;99.90
22540;DHT22;11436;50.860;4.334;2022-07-29T00:50:35;19.50;99.90
22540;DHT22;11436;50.860;4.334;2022-07-29T00:53:02;19.50;99.90
22540;DHT22;11436;50.860;4.334;2022-07-29T00:55:29;19.50;99.90
22540;DHT22;11436;50.860;4.334;2022-07-29T00:57:55;19.50;99.90
22540;DHT22;11436;50.860;4.334;2022-07-29T01:00:24;19.50;99.90
22540;DHT22;11436;50.860;4.334;2022-07-29T01:02:51;19.40;99.90
22540;DHT22;11436;50.860;4.334;2022-07-29T01:05:23;19.40;99.90
22540;DHT22;11436;50.860;4.334;2022-07-29T01:07:52;19.40;99.90
22540;DHT22;11436;50.860;4.334;2022-07-29T01:10:19;19.30;99.90
22540;DHT22;11436;50.860;4.334;2022-07-29T01:12:49;19.30;99.90
22540;DHT22;11436;50.860;4.334;2022-07-29T01:15:15;19.30;99.90
22540;DHT22;11436;50.860;4.334;2022-07-29T01:18:01;19.30;99.90
22540;DHT22;11436;50.860;4.334;2022-07-29T01:29:21;19.50;99.90
22540;DHT22;11436;50.860;4.334;2022-07-29T01:34:30;19.40;99.90
22540;DHT22;11436;50.860;4.334;2022-07-29T01:37:26;19.40;99.90
22540;DHT22;11436;50.860;4.334;2022-07-29T01:39:55;19.40;99.90
22540;DHT22;11436;50.860;4.334;2022-07-29T01:42:32;19.60;99.90
22540;DHT22;11436;50.860;4.334;2022-07-29T01:45:21;19.80;99.90
22540;DHT22;11436;50.860;4.334;2022-07-29T01:48:10;19.70;99.90
22540;DHT22;11436;50.860;4.334;2022-07-29T01:50:44;19.50;99.90
22540;DHT22;11436;50.860;4.334;2022-07-29T01:53:13;19.40;99.90
22540;DHT22;11436;50.860;4.334;2022-07-29T01:55:43;19.30;99.90
22540;DHT22;11436;50.860;4.334;2022-07-29T01:58:11;19.20;99.90
22540;DHT22;11436;50.860;4.334;2022-07-29T02:00:38;19.20;99.90
22540;DHT22;11436;50.860;4.334;2022-07-29T02:03:09;19.20;99.90
22540;DHT22;11436;50.860;4.334;2022-07-29T02:05:38;19.20;99.90
22540;DHT22;11436;50.860;4.334;2022-07-29T02:08:04;19.40;99.90
22540;DHT22;11436;50.860;4.334;2022-07-29T02:10:33;19.50;99.90
22540;DHT22;11436;50.860;4.334;2022-07-29T02:13:02;19.50;99.90
22540;DHT22;11436;50.860;4.334;2022-07-29T02:15:31;19.50;99.90
22540;DHT22;11436;50.860;4.334;2022-07-29T02:18:15;19.40;99.90
22540;DHT22;11436;50.860;4.334;2022-07-29T02:20:49;19.20;99.90
22540;DHT22;11436;50.860;4.334;2022-07-29T02:23:19;19.10;99.90
22540;DHT22;11436;50.860;4.334;2022-07-29T02:25:49;19.10;99.90
22540;DHT22;11436;50.860;4.334;2022-07-29T02:28:17;19.00;99.90
22540;DHT22;11436;50.860;4.334;2022-07-29T02:30:44;19.00;99.90
22540;DHT22;11436;50.860;4.334;2022-07-29T02:33:13;19.00;99.90
22540;DHT22;11436;50.860;4.334;2022-07-29T02:35:41;19.00;99.90
22540;DHT22;11436;50.860;4.334;2022-07-29T02:38:09;18.90;99.90
22540;DHT22;11436;50.860;4.334;2022-07-29T02:40:56;18.90;99.90
22540;DHT22;11436;50.860;4.334;2022-07-29T02:43:24;18.80;99.90
22540;DHT22;11436;50.860;4.334;2022-07-29T02:45:53;18.80;99.90
22540;DHT22;11436;50.860;4.334;2022-07-29T02:48:31;18.80;99.90
22540;DHT22;11436;50.860;4.334;2022-07-29T02:51:05;18.80;99.90
22540;DHT22;11436;50.860;4.334;2022-07-29T02:53:33;18.90;99.90
22540;DHT22;11436;50.860;4.334;2022-07-29T02:56:04;19.10;99.90
22540;DHT22;11436;50.860;4.334;2022-07-29T02:58:45;19.20;99.90
22540;DHT22;11436;50.860;4.334;2022-07-29T03:01:24;19.30;99.90
22540;DHT22;11436;50.860;4.334;2022-07-29T03:03:53;19.20;99.90
22540;DHT22;11436;50.860;4.334;2022-07-29T03:06:21;19.00;99.90
22540;DHT22;11436;50.860;4.334;2022-07-29T03:08:48;19.00;99.90
22540;DHT22;11436;50.860;4.334;2022-07-29T03:11:15;19.00;99.90
22540;DHT22;11436;50.860;4.334;2022-07-29T03:13:42;18.80;99.90
22540;DHT22;11436;50.860;4.334;2022-07-29T03:16:08;18.60;99.90
22540;DHT22;11436;50.860;4.334;2022-07-29T03:18:35;18.50;99.90
22540;DHT22;11436;50.860;4.334;2022-07-29T03:21:02;18.40;99.90
22540;DHT22;11436;50.860;4.334;2022-07-29T03:23:28;18.30;99.90
22540;DHT22;11436;50.860;4.334;2022-07-29T03:25:55;18.30;99.90
22540;DHT22;11436;50.860;4.334;2022-07-29T03:28:21;18.30;99.90
22540;DHT22;11436;50.860;4.334;2022-07-29T03:30:47;18.20;99.90
22540;DHT22;11436;50.860;4.334;2022-07-29T03:33:13;18.20;99.90
22540;DHT22;11436;50.860;4.334;2022-07-29T03:35:39;18.30;99.90
22540;DHT22;11436;50.860;4.334;2022-07-29T03:38:05;18.30;99.90
22540;DHT22;11436;50.860;4.334;2022-07-29T03:43:08;18.30;99.90
22540;DHT22;11436;50.860;4.334;2022-07-29T03:45:35;18.20;99.90
22540;DHT22;11436;50.860;4.334;2022-07-29T03:48:11;18.30;99.90
22540;DHT22;11436;50.860;4.334;2022-07-29T03:50:38;18.60;99.90
22540;DHT22;11436;50.860;4.334;2022-07-29T03:53:03;18.60;99.90
22540;DHT22;11436;50.860;4.334;2022-07-29T03:55:33;18.50;99.90
22540;DHT22;11436;50.860;4.334;2022-07-29T03:58:02;18.30;99.90
22540;DHT22;11436;50.860;4.334;2022-07-29T04:00:28;18.20;99.90
22540;DHT22;11436;50.860;4.334;2022-07-29T04:02:56;18.10;99.90
22540;DHT22;11436;50.860;4.334;2022-07-29T04:05:21;18.10;99.90
22540;DHT22;11436;50.860;4.334;2022-07-29T04:07:48;18.30;99.90
22540;DHT22;11436;50.860;4.334;2022-07-29T04:10:14;18.20;99.90
22540;DHT22;11436;50.860;4.334;2022-07-29T04:12:44;18.20;99.90
22540;DHT22;11436;50.860;4.334;2022-07-29T04:15:10;18.20;99.90
22540;DHT22;11436;50.860;4.334;2022-07-29T04:17:36;18.20;99.90
22540;DHT22;11436;50.860;4.334;2022-07-29T04:20:02;18.30;99.90
22540;DHT22;11436;50.860;4.334;2022-07-29T04:22:29;18.20;99.90
22540;DHT22;11436;50.860;4.334;2022-07-29T04:24:55;18.00;99.90
22540;DHT22;11436;50.860;4.334;2022-07-29T04:27:21;17.90;99.90
22540;DHT22;11436;50.860;4.334;2022-07-29T04:29:46;17.70;99.90
22540;DHT22;11436;50.860;4.334;2022-07-29T04:32:12;17.70;99.90
22540;DHT22;11436;50.860;4.334;2022-07-29T04:34:38;17.60;99.90
22540;DHT22;11436;50.860;4.334;2022-07-29T04:37:04;17.70;99.90
22540;DHT22;11436;50.860;4.334;2022-07-29T04:39:29;17.70;99.90
22540;DHT22;11436;50.860;4.334;2022-07-29T04:41:55;17.70;99.90
22540;DHT22;11436;50.860;4.334;2022-07-29T04:44:21;17.70;99.90
22540;DHT22;11436;50.860;4.334;2022-07-29T04:46:47;17.80;99.90
22540;DHT22;11436;50.860;4.334;2022-07-29T04:49:13;17.70;99.90
22540;DHT22;11436;50.860;4.334;2022-07-29T04:51:39;17.70;99.90
22540;DHT22;11436;50.860;4.334;2022-07-29T04:54:04;17.70;99.90
22540;DHT22;11436;50.860;4.334;2022-07-29T04:56:30;17.60;99.90
22540;DHT22;11436;50.860;4.334;2022-07-29T04:58:56;17.70;99.90
22540;DHT22;11436;50.860;4.334;2022-07-29T05:01:22;17.70;99.90
22540;DHT22;11436;50.860;4.334;2022-07-29T05:03:47;17.80;99.90
22540;DHT22;11436;50.860;4.334;2022-07-29T05:06:13;17.80;99.90
22540;DHT22;11436;50.860;4.334;2022-07-29T05:08:39;17.80;99.90
22540;DHT22;11436;50.860;4.334;2022-07-29T05:11:04;17.80;99.90
22540;DHT22;11436;50.860;4.334;2022-07-29T05:13:30;17.90;99.90
22540;DHT22;11436;50.860;4.334;2022-07-29T05:15:56;18.10;99.90
22540;DHT22;11436;50.860;4.334;2022-07-29T05:18:24;18.10;99.90
22540;DHT22;11436;50.860;4.334;2022-07-29T05:20:50;18.10;99.90
22540;DHT22;11436;50.860;4.334;2022-07-29T05:23:16;18.10;99.90
22540;DHT22;11436;50.860;4.334;2022-07-29T05:25:42;18.10;99.90
22540;DHT22;11436;50.860;4.334;2022-07-29T05:28:08;18.10;99.90
22540;DHT22;11436;50.860;4.334;2022-07-29T05:30:33;18.00;99.90
22540;DHT22;11436;50.860;4.334;2022-07-29T05:32:59;17.90;99.90
22540;DHT22;11436;50.860;4.334;2022-07-29T05:35:25;18.00;99.90
22540;DHT22;11436;50.860;4.334;2022-07-29T05:37:50;17.90;99.90
22540;DHT22;11436;50.860;4.334;2022-07-29T05:40:16;17.90;99.90
22540;DHT22;11436;50.860;4.334;2022-07-29T05:42:42;17.90;99.90
22540;DHT22;11436;50.860;4.334;2022-07-29T05:45:08;17.90;99.90
22540;DHT22;11436;50.860;4.334;2022-07-29T05:47:34;17.90;99.90
22540;DHT22;11436;50.860;4.334;2022-07-29T05:50:00;17.80;99.90
22540;DHT22;11436;50.860;4.334;2022-07-29T05:52:26;17.70;99.90
22540;DHT22;11436;50.860;4.334;2022-07-29T05:54:52;17.70;99.90
22540;DHT22;11436;50.860;4.334;2022-07-29T05:57:19;17.80;99.90
22540;DHT22;11436;50.860;4.334;2022-07-29T05:59:45;18.00;99.90
22540;DHT22;11436;50.860;4.334;2022-07-29T06:02:11;18.00;99.90
22540;DHT22;11436;50.860;4.334;2022-07-29T06:04:37;18.00;99.90
22540;DHT22;11436;50.860;4.334;2022-07-29T06:07:03;17.90;99.90
22540;DHT22;11436;50.860;4.334;2022-07-29T06:09:29;17.90;99.90
22540;DHT22;11436;50.860;4.334;2022-07-29T06:11:55;18.00;99.90
22540;DHT22;11436;50.860;4.334;2022-07-29T06:14:21;18.20;99.90
22540;DHT22;11436;50.860;4.334;2022-07-29T06:16:46;18.60;99.90
22540;DHT22;11436;50.860;4.334;2022-07-29T06:19:12;19.20;99.90
22540;DHT22;11436;50.860;4.334;2022-07-29T06:21:42;19.60;99.90
22540;DHT22;11436;50.860;4.334;2022-07-29T06:24:10;19.60;99.90
22540;DHT22;11436;50.860;4.334;2022-07-29T06:26:35;19.40;99.90
22540;DHT22;11436;50.860;4.334;2022-07-29T06:29:01;19.20;99.90
22540;DHT22;11436;50.860;4.334;2022-07-29T06:31:27;19.10;99.90
22540;DHT22;11436;50.860;4.334;2022-07-29T06:33:52;19.00;99.90
22540;DHT22;11436;50.860;4.334;2022-07-29T06:36:18;18.90;99.90
22540;DHT22;11436;50.860;4.334;2022-07-29T06:38:44;18.90;99.90
22540;DHT22;11436;50.860;4.334;2022-07-29T06:41:10;18.90;99.90
22540;DHT22;11436;50.860;4.334;2022-07-29T06:43:41;19.10;99.90
22540;DHT22;11436;50.860;4.334;2022-07-29T06:46:13;19.00;99.90
22540;DHT22;11436;50.860;4.334;2022-07-29T06:48:40;19.00;99.90
22540;DHT22;11436;50.860;4.334;2022-07-29T06:51:07;19.40;99.90
22540;DHT22;11436;50.860;4.334;2022-07-29T06:53:34;19.80;99.90
22540;DHT22;11436;50.860;4.334;2022-07-29T06:56:01;20.30;99.90
22540;DHT22;11436;50.860;4.334;2022-07-29T06:58:28;20.60;99.90
22540;DHT22;11436;50.860;4.334;2022-07-29T07:00:54;20.70;99.90
22540;DHT22;11436;50.860;4.334;2022-07-29T07:03:20;20.90;99.90
22540;DHT22;11436;50.860;4.334;2022-07-29T07:05:46;20.70;99.90
22540;DHT22;11436;50.860;4.334;2022-07-29T07:08:12;20.70;99.90
22540;DHT22;11436;50.860;4.334;2022-07-29T07:10:39;20.50;99.90
22540;DHT22;11436;50.860;4.334;2022-07-29T07:13:05;20.50;99.90
22540;DHT22;11436;50.860;4.334;2022-07-29T07:15:31;20.40;99.90
22540;DHT22;11436;50.860;4.334;2022-07-29T07:17:59;20.60;99.90
22540;DHT22;11436;50.860;4.334;2022-07-29T07:20:25;20.50;99.90
22540;DHT22;11436;50.860;4.334;2022-07-29T07:22:51;20.20;99.90
22540;DHT22;11436;50.860;4.334;2022-07-29T07:25:16;20.20;99.90
22540;DHT22;11436;50.860;4.334;2022-07-29T07:27:46;20.30;99.90
22540;DHT22;11436;50.860;4.334;2022-07-29T07:30:12;20.50;99.90
22540;DHT22;11436;50.860;4.334;2022-07-29T07:32:38;20.50;99.90
22540;DHT22;11436;50.860;4.334;2022-07-29T07:35:05;20.50;99.90
22540;DHT22;11436;50.860;4.334;2022-07-29T07:37:31;20.40;99.90
22540;DHT22;11436;50.860;4.334;2022-07-29T07:39:57;20.30;99.90
22540;DHT22;11436;50.860;4.334;2022-07-29T07:42:23;20.20;99.90
22540;DHT22;11436;50.860;4.334;2022-07-29T07:44:49;20.10;99.90
22540;DHT22;11436;50.860;4.334;2022-07-29T07:47:15;20.00;99.90
22540;DHT22;11436;50.860;4.334;2022-07-29T07:49:46;20.10;99.90
22540;DHT22;11436;50.860;4.334;2022-07-29T07:52:13;20.20;99.90
22540;DHT22;11436;50.860;4.334;2022-07-29T07:54:39;20.20;99.90
22540;DHT22;11436;50.860;4.334;2022-07-29T07:57:06;20.20;99.90
22540;DHT22;11436;50.860;4.334;2022-07-29T07:59:32;20.30;99.90
22540;DHT22;11436;50.860;4.334;2022-07-29T08:01:57;20.30;99.90
22540;DHT22;11436;50.860;4.334;2022-07-29T08:04:23;20.10;99.90
22540;DHT22;11436;50.860;4.334;2022-07-29T08:06:50;20.20;99.90
22540;DHT22;11436;50.860;4.334;2022-07-29T08:09:16;20.00;99.90
22540;DHT22;11436;50.860;4.334;2022-07-29T08:11:42;20.10;99.90
22540;DHT22;11436;50.860;4.334;2022-07-29T08:14:08;20.10;99.90
22540;DHT22;11436;50.860;4.334;2022-07-29T08:16:33;20.30;99.90
22540;DHT22;11436;50.860;4.334;2022-07-29T08:18:59;20.30;99.90
22540;DHT22;11436;50.860;4.334;2022-07-29T08:21:25;20.20;99.90
22540;DHT22;11436;50.860;4.334;2022-07-29T08:23:51;20.20;99.90
22540;DHT22;11436;50.860;4.334;2022-07-29T08:26:43;20.20;99.90
22540;DHT22;11436;50.860;4.334;2022-07-29T08:29:09;20.30;99.90
22540;DHT22;11436;50.860;4.334;2022-07-29T08:31:36;20.60;99.90
22540;DHT22;11436;50.860;4.334;2022-07-29T08:34:03;20.80;99.90
22540;DHT22;11436;50.860;4.334;2022-07-29T08:36:31;20.90;99.90
22540;DHT22;11436;50.860;4.334;2022-07-29T08:38:58;21.00;99.90
22540;DHT22;11436;50.860;4.334;2022-07-29T08:41:25;21.10;99.90
22540;DHT22;11436;50.860;4.334;2022-07-29T08:43:51;21.10;99.90
22540;DHT22;11436;50.860;4.334;2022-07-29T08:46:18;20.90;99.90
22540;DHT22;11436;50.860;4.334;2022-07-29T08:48:44;20.70;99.90
22540;DHT22;11436;50.860;4.334;2022-07-29T08:51:29;20.70;99.90
22540;DHT22;11436;50.860;4.334;2022-07-29T08:53:56;20.60;99.90
22540;DHT22;11436;50.860;4.334;2022-07-29T08:56:23;20.60;99.90
22540;DHT22;11436;50.860;4.334;2022-07-29T08:58:49;20.90;99.90
22540;DHT22;11436;50.860;4.334;2022-07-29T09:01:17;21.20;99.90
22540;DHT22;11436;50.860;4.334;2022-07-29T09:03:46;21.10;99.90
22540;DHT22;11436;50.860;4.334;2022-07-29T09:06:17;21.10;99.90
22540;DHT22;11436;50.860;4.334;2022-07-29T09:08:44;21.20;99.90
22540;DHT22;11436;50.860;4.334;2022-07-29T09:11:11;21.30;99.90
22540;DHT22;11436;50.860;4.334;2022-07-29T09:13:38;21.40;99.90
22540;DHT22;11436;50.860;4.334;2022-07-29T09:16:04;21.30;99.90
22540;DHT22;11436;50.860;4.334;2022-07-29T09:18:34;21.20;99.90
22540;DHT22;11436;50.860;4.334;2022-07-29T09:21:02;21.30;99.90
22540;DHT22;11436;50.860;4.334;2022-07-29T09:24:07;21.30;99.90
22540;DHT22;11436;50.860;4.334;2022-07-29T09:26:34;21.50;99.90
22540;DHT22;11436;50.860;4.334;2022-07-29T09:29:08;21.50;99.90
22540;DHT22;11436;50.860;4.334;2022-07-29T09:31:37;21.70;99.90
22540;DHT22;11436;50.860;4.334;2022-07-29T09:34:04;21.80;99.90
22540;DHT22;11436;50.860;4.334;2022-07-29T09:36:30;21.70;99.90
22540;DHT22;11436;50.860;4.334;2022-07-29T09:39:00;21.70;99.90
22540;DHT22;11436;50.860;4.334;2022-07-29T09:41:43;21.80;99.90
22540;DHT22;11436;50.860;4.334;2022-07-29T09:44:09;21.70;99.90
22540;DHT22;11436;50.860;4.334;2022-07-29T09:46:35;21.60;99.90
22540;DHT22;11436;50.860;4.334;2022-07-29T09:49:12;21.50;99.90
22540;DHT22;11436;50.860;4.334;2022-07-29T09:51:38;21.60;99.90
22540;DHT22;11436;50.860;4.334;2022-07-29T09:54:26;21.70;99.90
22540;DHT22;11436;50.860;4.334;2022-07-29T09:56:52;21.90;99.90
22540;DHT22;11436;50.860;4.334;2022-07-29T09:59:19;22.00;99.90
22540;DHT22;11436;50.860;4.334;2022-07-29T10:01:48;22.00;99.90
22540;DHT22;11436;50.860;4.334;2022-07-29T10:04:18;22.00;99.90
22540;DHT22;11436;50.860;4.334;2022-07-29T10:06:58;22.20;99.90
22540;DHT22;11436;50.860;4.334;2022-07-29T10:09:24;22.30;99.90
22540;DHT22;11436;50.860;4.334;2022-07-29T10:12:23;22.60;99.90
22540;DHT22;11436;50.860;4.334;2022-07-29T10:14:49;22.60;99.90
22540;DHT22;11436;50.860;4.334;2022-07-29T10:17:16;22.50;99.90
22540;DHT22;11436;50.860;4.334;2022-07-29T10:19:42;22.60;99.90
22540;DHT22;11436;50.860;4.334;2022-07-29T10:22:09;22.90;99.90
22540;DHT22;11436;50.860;4.334;2022-07-29T10:24:37;23.00;99.90
22540;DHT22;11436;50.860;4.334;2022-07-29T10:27:05;23.10;99.90
22540;DHT22;11436;50.860;4.334;2022-07-29T10:29:32;23.10;99.90
22540;DHT22;11436;50.860;4.334;2022-07-29T10:32:09;23.00;99.90
22540;DHT22;11436;50.860;4.334;2022-07-29T10:40:45;23.10;99.90
22540;DHT22;11436;50.860;4.334;2022-07-29T10:43:37;23.20;99.90
22540;DHT22;11436;50.860;4.334;2022-07-29T10:46:06;23.60;99.90
22540;DHT22;11436;50.860;4.334;2022-07-29T10:48:33;23.40;99.90
22540;DHT22;11436;50.860;4.334;2022-07-29T10:50:59;23.40;99.90
22540;DHT22;11436;50.860;4.334;2022-07-29T10:56:27;23.40;99.90
22540;DHT22;11436;50.860;4.334;2022-07-29T11:01:46;23.70;99.90
22540;DHT22;11436;50.860;4.334;2022-07-29T11:04:12;23.90;99.90
22540;DHT22;11436;50.860;4.334;2022-07-29T11:09:25;24.20;99.90
22540;DHT22;11436;50.860;4.334;2022-07-29T11:11:51;24.10;99.90
22540;DHT22;11436;50.860;4.334;2022-07-29T11:14:18;23.80;99.90
22540;DHT22;11436;50.860;4.334;2022-07-29T11:17:20;23.70;99.90
22540;DHT22;11436;50.860;4.334;2022-07-29T11:19:45;23.90;99.90
22540;DHT22;11436;50.860;4.334;2022-07-29T11:22:34;24.30;99.90
22540;DHT22;11436;50.860;4.334;2022-07-29T11:25:14;24.50;99.90
22540;DHT22;11436;50.860;4.334;2022-07-29T11:27:40;24.40;99.90
22540;DHT22;11436;50.860;4.334;2022-07-29T11:30:06;24.60;99.90
22540;DHT22;11436;50.860;4.334;2022-07-29T11:32:41;24.60;99.90
22540;DHT22;11436;50.860;4.334;2022-07-29T11:35:18;24.30;99.90
22540;DHT22;11436;50.860;4.334;2022-07-29T11:38:23;24.20;99.90
22540;DHT22;11436;50.860;4.334;2022-07-29T11:40:33;24.20;99.90
22540;DHT22;11436;50.860;4.334;2022-07-29T11:42:59;24.40;99.90
22540;DHT22;11436;50.860;4.334;2022-07-29T11:45:26;24.50;99.90
22540;DHT22;11436;50.860;4.334;2022-07-29T11:47:58;24.80;99.90
22540;DHT22;11436;50.860;4.334;2022-07-29T11:52:53;25.10;99.90
22540;DHT22;11436;50.860;4.334;2022-07-29T11:55:21;25.10;99.90
22540;DHT22;11436;50.860;4.334;2022-07-29T11:57:57;25.40;99.90
22540;DHT22;11436;50.860;4.334;2022-07-29T12:00:32;25.50;99.90
22540;DHT22;11436;50.860;4.334;2022-07-29T12:02:59;25.40;99.90
22540;DHT22;11436;50.860;4.334;2022-07-29T12:05:38;25.50;99.90
22540;DHT22;11436;50.860;4.334;2022-07-29T12:08:15;25.90;99.90
22540;DHT22;11436;50.860;4.334;2022-07-29T12:10:45;25.60;99.90
22540;DHT22;11436;50.860;4.334;2022-07-29T12:13:13;25.60;99.90
22540;DHT22;11436;50.860;4.334;2022-07-29T12:15:39;25.40;99.90
22540;DHT22;11436;50.860;4.334;2022-07-29T12:18:17;25.20;99.90
22540;DHT22;11436;50.860;4.334;2022-07-29T12:20:44;24.80;99.90
22540;DHT22;11436;50.860;4.334;2022-07-29T12:23:10;24.90;99.90
22540;DHT22;11436;50.860;4.334;2022-07-29T12:25:40;25.40;99.90
22540;DHT22;11436;50.860;4.334;2022-07-29T12:28:09;25.80;99.90
22540;DHT22;11436;50.860;4.334;2022-07-29T12:30:46;26.10;99.90
22540;DHT22;11436;50.860;4.334;2022-07-29T12:33:22;26.10;99.90
22540;DHT22;11436;50.860;4.334;2022-07-29T12:35:54;26.90;99.90
22540;DHT22;11436;50.860;4.334;2022-07-29T12:38:21;28.40;99.90
22540;DHT22;11436;50.860;4.334;2022-07-29T12:40:47;28.20;99.90
22540;DHT22;11436;50.860;4.334;2022-07-29T12:43:22;29.20;99.90
22540;DHT22;11436;50.860;4.334;2022-07-29T12:45:56;29.80;99.90
22540;DHT22;11436;50.860;4.334;2022-07-29T12:48:39;29.40;99.90
22540;DHT22;11436;50.860;4.334;2022-07-29T12:51:06;29.30;99.90
22540;DHT22;11436;50.860;4.334;2022-07-29T12:53:33;29.70;99.90
22540;DHT22;11436;50.860;4.334;2022-07-29T12:56:00;29.10;99.90
22540;DHT22;11436;50.860;4.334;2022-07-29T13:03:58;28.90;99.90
22540;DHT22;11436;50.860;4.334;2022-07-29T13:06:30;30.20;99.90
22540;DHT22;11436;50.860;4.334;2022-07-29T13:09:05;30.10;99.90
22540;DHT22;11436;50.860;4.334;2022-07-29T13:11:39;29.40;99.90
22540;DHT22;11436;50.860;4.334;2022-07-29T13:14:07;29.00;99.90
22540;DHT22;11436;50.860;4.334;2022-07-29T13:16:34;29.30;99.90
22540;DHT22;11436;50.860;4.334;2022-07-29T13:19:09;29.00;99.90
22540;DHT22;11436;50.860;4.334;2022-07-29T13:21:36;28.30;99.90
22540;DHT22;11436;50.860;4.334;2022-07-29T13:24:03;28.60;99.90
22540;DHT22;11436;50.860;4.334;2022-07-29T13:26:29;28.90;99.90
22540;DHT22;11436;50.860;4.334;2022-07-29T13:28:55;29.00;99.90
22540;DHT22;11436;50.860;4.334;2022-07-29T13:31:21;28.70;99.90
22540;DHT22;11436;50.860;4.334;2022-07-29T13:33:47;29.00;99.90
22540;DHT22;11436;50.860;4.334;2022-07-29T13:36:13;28.90;99.90
22540;DHT22;11436;50.860;4.334;2022-07-29T13:38:40;29.20;99.90
22540;DHT22;11436;50.860;4.334;2022-07-29T13:41:06;29.50;99.90
22540;DHT22;11436;50.860;4.334;2022-07-29T13:43:32;29.40;99.90
22540;DHT22;11436;50.860;4.334;2022-07-29T13:45:58;30.00;99.90
22540;DHT22;11436;50.860;4.334;2022-07-29T13:48:25;30.00;99.90
22540;DHT22;11436;50.860;4.334;2022-07-29T13:50:51;29.40;99.90
22540;DHT22;11436;50.860;4.334;2022-07-29T13:53:17;29.40;99.90
22540;DHT22;11436;50.860;4.334;2022-07-29T13:55:42;29.80;99.90
22540;DHT22;11436;50.860;4.334;2022-07-29T13:58:08;29.90;99.90
22540;DHT22;11436;50.860;4.334;2022-07-29T14:00:34;30.70;99.90
22540;DHT22;11436;50.860;4.334;2022-07-29T14:03:00;31.80;99.90
22540;DHT22;11436;50.860;4.334;2022-07-29T14:05:26;32.00;98.30
22540;DHT22;11436;50.860;4.334;2022-07-29T14:07:51;33.00;97.50
22540;DHT22;11436;50.860;4.334;2022-07-29T14:10:17;32.70;96.50
22540;DHT22;11436;50.860;4.334;2022-07-29T14:12:42;33.30;95.60
22540;DHT22;11436;50.860;4.334;2022-07-29T14:15:08;33.70;94.70
22540;DHT22;11436;50.860;4.334;2022-07-29T14:17:34;32.00;95.00
22540;DHT22;11436;50.860;4.334;2022-07-29T14:20:00;31.20;95.50
22540;DHT22;11436;50.860;4.334;2022-07-29T14:22:26;31.20;96.40
22540;DHT22;11436;50.860;4.334;2022-07-29T14:24:52;32.00;95.40
22540;DHT22;11436;50.860;4.334;2022-07-29T14:27:18;31.90;94.10
22540;DHT22;11436;50.860;4.334;2022-07-29T14:29:43;30.80;94.00
22540;DHT22;11436;50.860;4.334;2022-07-29T14:32:09;30.00;94.60
22540;DHT22;11436;50.860;4.334;2022-07-29T14:34:36;30.50;94.60
22540;DHT22;11436;50.860;4.334;2022-07-29T14:37:02;30.80;94.70
22540;DHT22;11436;50.860;4.334;2022-07-29T14:39:30;32.30;94.00
22540;DHT22;11436;50.860;4.334;2022-07-29T14:41:56;32.30;92.60
22540;DHT22;11436;50.860;4.334;2022-07-29T14:44:22;32.20;92.70
22540;DHT22;11436;50.860;4.334;2022-07-29T14:46:48;31.50;93.20
22540;DHT22;11436;50.860;4.334;2022-07-29T14:49:14;30.60;93.60
22540;DHT22;11436;50.860;4.334;2022-07-29T14:51:40;31.00;93.80
22540;DHT22;11436;50.860;4.334;2022-07-29T14:54:06;31.30;93.40
22540;DHT22;11436;50.860;4.334;2022-07-29T14:56:32;31.70;93.40
22540;DHT22;11436;50.860;4.334;2022-07-29T14:58:57;32.10;93.40
22540;DHT22;11436;50.860;4.334;2022-07-29T15:01:24;32.30;92.40
22540;DHT22;11436;50.860;4.334;2022-07-29T15:03:50;32.80;91.80
22540;DHT22;11436;50.860;4.334;2022-07-29T15:06:16;31.40;91.70
22540;DHT22;11436;50.860;4.334;2022-07-29T15:08:41;30.50;92.50
22540;DHT22;11436;50.860;4.334;2022-07-29T15:11:07;29.90;93.10
22540;DHT22;11436;50.860;4.334;2022-07-29T15:13:34;30.40;93.40
22540;DHT22;11436;50.860;4.334;2022-07-29T15:15:59;32.30;91.90
22540;DHT22;11436;50.860;4.334;2022-07-29T15:18:25;33.00;90.70
22540;DHT22;11436;50.860;4.334;2022-07-29T15:20:51;32.80;90.60
22540;DHT22;11436;50.860;4.334;2022-07-29T15:23:16;32.50;90.40
22540;DHT22;11436;50.860;4.334;2022-07-29T15:25:42;33.40;90.40
22540;DHT22;11436;50.860;4.334;2022-07-29T15:28:08;34.30;88.90
22540;DHT22;11436;50.860;4.334;2022-07-29T15:30:34;34.10;86.30
22540;DHT22;11436;50.860;4.334;2022-07-29T15:33:06;34.10;86.40
22540;DHT22;11436;50.860;4.334;2022-07-29T15:35:32;33.90;86.00
22540;DHT22;11436;50.860;4.334;2022-07-29T15:37:58;33.40;86.00
22540;DHT22;11436;50.860;4.334;2022-07-29T15:40:24;34.30;85.40
22540;DHT22;11436;50.860;4.334;2022-07-29T15:42:50;33.90;82.80
22540;DHT22;11436;50.860;4.334;2022-07-29T15:45:15;35.30;79.50
22540;DHT22;11436;50.860;4.334;2022-07-29T15:47:41;34.80;78.80
22540;DHT22;11436;50.860;4.334;2022-07-29T15:50:07;33.20;80.20
22540;DHT22;11436;50.860;4.334;2022-07-29T15:52:38;32.80;80.60
22540;DHT22;11436;50.860;4.334;2022-07-29T15:55:05;32.60;81.80
22540;DHT22;11436;50.860;4.334;2022-07-29T15:57:31;33.90;80.80
22540;DHT22;11436;50.860;4.334;2022-07-29T15:59:57;33.60;80.10
22540;DHT22;11436;50.860;4.334;2022-07-29T16:02:24;34.70;79.80
22540;DHT22;11436;50.860;4.334;2022-07-29T16:04:50;35.20;76.30
22540;DHT22;11436;50.860;4.334;2022-07-29T16:07:16;35.50;74.90
22540;DHT22;11436;50.860;4.334;2022-07-29T16:09:42;33.90;75.80
22540;DHT22;11436;50.860;4.334;2022-07-29T16:12:08;31.90;78.80
22540;DHT22;11436;50.860;4.334;2022-07-29T16:14:34;32.70;79.70